This is the latest recevied weather packets stored in our database for station/object VA3JLF-1. If no packets are shown the sender has not sent any weather packets the latest 10 day(s).
| Time | Temp. | Humidity | Pressure | Rain* | Wind** | Luminosity | Snow |
|---|---|---|---|---|---|---|---|
| 1777797958 | 0.56° C | 87% | 1009.8 hPa | 0 mm | - | - | - |
| 1777797359 | 0.56° C | 86% | 1009.8 hPa | 0 mm | - | - | - |
| 1777796758 | 1.11° C | 85% | 1009.7 hPa | 0 mm | - | - | - |
| 1777796158 | 2.22° C | 81% | 1009.8 hPa | 0 mm | - | - | - |
| 1777795558 | 2.78° C | 78% | 1009.9 hPa | 0 mm | - | - | - |
| 1777794961 | 2.22° C | 80% | 1009.9 hPa | 0 mm | - | - | - |
| 1777794958 | 2.22° C | 80% | 1009.9 hPa | 0 mm | - | - | - |
| 1777794358 | 2.78° C | 78% | 1009.8 hPa | 0 mm | - | - | - |
| 1777793758 | 2.78° C | 79% | 1009.9 hPa | 0 mm | - | - | - |
| 1777793158 | 3.33° C | 78% | 1009.9 hPa | 0 mm | - | - | - |
| 1777792559 | 3.89° C | 77% | 1009.7 hPa | 0 mm | - | - | - |
| 1777791959 | 3.89° C | 77% | 1009.9 hPa | 0 mm | - | - | - |
| 1777791359 | 4.44° C | 75% | 1009.7 hPa | 0 mm | - | - | - |
| 1777790759 | 4.44° C | 77% | 1009.7 hPa | 0 mm | - | - | - |
| 1777790159 | 4.44° C | 76% | 1009.8 hPa | 0 mm | - | - | - |
| 1777789559 | 5° C | 76% | 1009.7 hPa | 0 mm | - | - | - |
| 1777788958 | 5° C | 73% | 1010 hPa | 0 mm | - | - | - |
| 1777788358 | 5° C | 74% | 1010 hPa | 0 mm | - | - | - |
| 1777787759 | 5.56° C | 74% | 1010 hPa | 0 mm | - | - | - |
| 1777787158 | 5.56° C | 75% | 1010 hPa | 0 mm | - | - | - |
| 1777786558 | 5.56° C | 73% | 1009.9 hPa | 0 mm | - | - | - |
| 1777785958 | 5.56° C | 75% | 1010.1 hPa | 0 mm | - | - | - |
| 1777785358 | 5.56° C | 79% | 1010.1 hPa | 0 mm | - | - | - |
| 1777784758 | 5.56° C | 83% | 1010.2 hPa | 0 mm | - | - | - |
| 1777784161 | 5.56° C | 84% | 1010.3 hPa | 0 mm | - | - | - |
* Rain latest hour (hover to see other rain measurements)
** Current wind speed in m/s (hover to see current wind gust speed)